createdAt,value
2019-05-12T00:02:03.342Z,11.49
2019-05-12T00:04:34.661Z,11.48
2019-05-12T00:07:05.832Z,11.47
2019-05-12T00:09:38.807Z,11.46
2019-05-12T00:12:09.916Z,11.44
2019-05-12T00:14:41.258Z,11.34
2019-05-12T00:17:12.592Z,11.32
2019-05-12T00:19:43.547Z,11.24
2019-05-12T00:22:18.066Z,11.21
2019-05-12T00:24:49.626Z,11.18
2019-05-12T00:27:23.502Z,11.08
2019-05-12T00:29:57.799Z,11.08
2019-05-12T00:32:29.640Z,11.00
2019-05-12T00:35:01.202Z,10.91
2019-05-12T00:37:32.328Z,10.80
2019-05-12T00:40:03.983Z,10.72
2019-05-12T00:42:35.096Z,10.69
2019-05-12T00:45:08.378Z,10.58
2019-05-12T00:47:40.699Z,10.53
2019-05-12T00:50:11.974Z,10.55
2019-05-12T00:52:43.286Z,10.50
2019-05-12T00:55:14.735Z,10.55
2019-05-12T00:57:45.837Z,10.53
2019-05-12T01:00:17.890Z,10.46
2019-05-12T01:02:49.009Z,10.38
2019-05-12T01:05:20.133Z,10.34
2019-05-12T01:07:51.329Z,10.34
2019-05-12T01:10:23.423Z,10.28
2019-05-12T01:12:54.738Z,10.22
2019-05-12T01:15:28.607Z,10.20
2019-05-12T01:18:03.218Z,10.10
2019-05-12T01:20:35.519Z,10.12
2019-05-12T01:23:08.927Z,10.10
2019-05-12T01:25:41.298Z,9.98
2019-05-12T01:28:13.698Z,9.88
2019-05-12T01:30:47.925Z,9.84
2019-05-12T01:33:20.363Z,9.73
2019-05-12T01:35:51.822Z,9.57
2019-05-12T01:38:23.340Z,9.49
2019-05-12T01:40:55.284Z,9.32
2019-05-12T01:43:27.758Z,9.12
2019-05-12T01:46:00.054Z,8.95
2019-05-12T01:48:32.179Z,8.88
2019-05-12T01:51:03.832Z,8.78
2019-05-12T01:53:37.628Z,8.68
2019-05-12T01:56:08.099Z,8.49
2019-05-12T01:58:39.277Z,8.43
2019-05-12T02:01:12.182Z,8.37
2019-05-12T02:03:43.110Z,8.28
2019-05-12T02:06:14.667Z,8.20
2019-05-12T02:08:47.854Z,8.13
2019-05-12T02:11:20.792Z,8.12
2019-05-12T02:13:52.506Z,8.07
2019-05-12T02:16:23.998Z,8.10
2019-05-12T02:18:55.136Z,8.08
2019-05-12T02:21:28.056Z,8.09
2019-05-12T02:23:59.344Z,7.99
2019-05-12T02:26:30.354Z,8.04
2019-05-12T02:29:01.987Z,7.95
2019-05-12T02:31:33.462Z,7.93
2019-05-12T02:34:05.706Z,7.91
2019-05-12T02:36:36.657Z,7.86
2019-05-12T02:39:08.784Z,7.76
2019-05-12T02:41:40.257Z,7.74
2019-05-12T02:44:14.603Z,7.69
2019-05-12T02:46:44.747Z,7.66
2019-05-12T02:49:15.990Z,7.64
2019-05-12T02:51:48.582Z,7.71
2019-05-12T02:54:24.987Z,7.66
2019-05-12T02:56:55.500Z,7.65
2019-05-12T02:59:29.749Z,7.63
2019-05-12T03:02:05.184Z,7.62
2019-05-12T03:04:36.442Z,7.53
2019-05-12T03:07:07.691Z,7.55
2019-05-12T03:09:39.935Z,7.55
2019-05-12T03:12:14.276Z,7.55
2019-05-12T03:14:44.926Z,7.49
2019-05-12T03:17:16.060Z,7.51
2019-05-12T03:19:47.554Z,7.46
2019-05-12T03:22:20.159Z,7.46
2019-05-12T03:25:07.749Z,7.43
2019-05-12T03:27:25.626Z,7.36
2019-05-12T03:29:57.054Z,7.30
2019-05-12T03:32:28.870Z,7.25
2019-05-12T03:35:00.319Z,7.27
2019-05-12T03:37:31.596Z,7.18
2019-05-12T03:40:05.418Z,7.14
2019-05-12T03:42:36.058Z,7.13
2019-05-12T03:45:07.539Z,7.12
2019-05-12T03:47:38.867Z,7.15
2019-05-12T03:50:10.580Z,7.08
2019-05-12T03:52:44.950Z,7.04
2019-05-12T03:55:30.203Z,7.07
2019-05-12T03:57:49.069Z,7.02
2019-05-12T04:00:24.492Z,7.05
2019-05-12T04:02:55.524Z,7.07
2019-05-12T04:05:27.208Z,7.08
2019-05-12T04:07:58.819Z,7.04
2019-05-12T04:10:30.743Z,7.07
2019-05-12T04:13:04.492Z,7.13
2019-05-12T04:15:35.894Z,7.13
2019-05-12T04:18:07.268Z,7.14
2019-05-12T04:20:38.779Z,7.12
2019-05-12T04:23:10.219Z,7.13
2019-05-12T04:25:54.825Z,7.16
2019-05-12T04:28:15.254Z,7.18
2019-05-12T04:30:46.676Z,7.22
2019-05-12T04:33:17.931Z,7.16
2019-05-12T04:35:49.656Z,7.21
2019-05-12T04:38:20.661Z,7.21
2019-05-12T04:40:55.073Z,7.16
2019-05-12T04:43:25.749Z,7.14
2019-05-12T04:45:57.599Z,7.14
2019-05-12T04:48:28.839Z,7.15
2019-05-12T04:51:01.385Z,7.18
2019-05-12T04:53:35.246Z,7.18
2019-05-12T04:56:15.636Z,7.14
2019-05-12T04:58:39.696Z,7.09
2019-05-12T05:01:10.981Z,7.10
2019-05-12T05:03:44.297Z,7.06
2019-05-12T05:06:15.390Z,7.01
2019-05-12T05:08:46.469Z,7.01
2019-05-12T05:11:17.698Z,7.03
2019-05-12T05:13:49.038Z,7.07
2019-05-12T05:16:19.796Z,7.07
2019-05-12T05:18:51.147Z,7.03
2019-05-12T05:21:24.032Z,7.06
2019-05-12T05:23:55.746Z,7.04
2019-05-12T05:26:28.295Z,7.09
2019-05-12T05:28:59.395Z,7.06
2019-05-12T05:31:30.592Z,7.07
2019-05-12T05:34:04.839Z,7.06
2019-05-12T05:36:36.589Z,7.04
2019-05-12T05:39:08.877Z,7.08
2019-05-12T05:41:46.611Z,7.12
2019-05-12T05:44:13.955Z,7.11
2019-05-12T05:46:49.998Z,7.13
2019-05-12T05:49:19.500Z,7.13
2019-05-12T05:51:55.115Z,7.16
2019-05-12T05:54:31.456Z,7.19
2019-05-12T05:56:59.696Z,7.19
2019-05-12T05:59:31.691Z,7.22
2019-05-12T06:02:04.711Z,7.19
2019-05-12T06:04:39.256Z,7.22
2019-05-12T06:07:08.345Z,7.23
2019-05-12T06:09:39.546Z,7.29
2019-05-12T06:12:10.994Z,7.28
2019-05-12T06:14:46.739Z,7.33
2019-05-12T06:17:15.500Z,7.34
2019-05-12T06:19:46.631Z,7.36
2019-05-12T06:22:18.571Z,7.40
2019-05-12T06:24:56.967Z,7.47
2019-05-12T06:27:24.339Z,7.50
2019-05-12T06:30:00.822Z,7.51
2019-05-12T06:32:29.150Z,7.51
2019-05-12T06:35:03.898Z,7.56
2019-05-12T06:37:33.930Z,7.58
2019-05-12T06:40:06.949Z,7.58
2019-05-12T06:42:38.238Z,7.60
2019-05-12T06:45:10.191Z,7.53
2019-05-12T06:47:45.300Z,7.54
2019-05-12T06:50:14.831Z,7.57
2019-05-12T06:52:49.009Z,7.59
2019-05-12T06:55:19.437Z,7.64
2019-05-12T06:57:50.887Z,7.62
2019-05-12T07:00:30.827Z,7.68
2019-05-12T07:02:55.513Z,7.66
2019-05-12T07:05:28.090Z,7.66
2019-05-12T07:08:00.909Z,7.72
2019-05-12T07:10:42.622Z,7.71
2019-05-12T07:13:06.125Z,7.77
2019-05-12T07:15:40.271Z,7.76
2019-05-12T07:18:14.091Z,7.84
2019-05-12T07:20:44.454Z,7.85
2019-05-12T07:23:19.583Z,7.86
2019-05-12T07:25:49.025Z,7.88
2019-05-12T07:28:20.591Z,7.92
2019-05-12T07:30:54.345Z,7.96
2019-05-12T07:33:25.991Z,7.92
2019-05-12T07:36:01.345Z,7.94
2019-05-12T07:38:34.385Z,7.93
2019-05-12T07:41:10.538Z,7.96
2019-05-12T07:43:40.626Z,7.98
2019-05-12T07:46:13.444Z,8.00
2019-05-12T07:48:48.955Z,7.95
2019-05-12T07:51:17.700Z,7.96
2019-05-12T07:53:57.231Z,8.02
2019-05-12T07:56:25.923Z,8.08
2019-05-12T07:58:57.242Z,8.09
2019-05-12T08:01:28.110Z,8.09
2019-05-12T08:04:01.424Z,8.09
2019-05-12T08:06:41.305Z,8.11
2019-05-12T08:09:07.997Z,8.07
2019-05-12T08:11:39.970Z,8.10
2019-05-12T08:14:13.856Z,8.13
2019-05-12T08:16:43.869Z,8.17
2019-05-12T08:19:24.020Z,8.17
2019-05-12T08:21:49.141Z,8.19
2019-05-12T08:24:20.501Z,8.22
2019-05-12T08:26:59.746Z,8.28
2019-05-12T08:29:24.580Z,8.29
2019-05-12T08:31:55.901Z,8.37
2019-05-12T08:34:27.121Z,8.40
2019-05-12T08:36:58.243Z,8.48
2019-05-12T08:39:29.303Z,8.51
2019-05-12T08:42:00.659Z,8.54
2019-05-12T08:44:38.471Z,8.49
2019-05-12T08:47:04.422Z,8.48
2019-05-12T08:49:49.733Z,8.45
2019-05-12T08:52:08.023Z,8.53
2019-05-12T08:54:39.573Z,8.64
2019-05-12T08:57:14.184Z,8.68
2019-05-12T08:59:44.265Z,8.70
2019-05-12T09:02:15.443Z,8.72
2019-05-12T09:04:51.253Z,8.68
2019-05-12T09:07:21.459Z,8.68
2019-05-12T09:09:53.412Z,8.76
2019-05-12T09:12:25.121Z,8.76
2019-05-12T09:14:56.071Z,8.73
2019-05-12T09:17:26.761Z,8.76
2019-05-12T09:20:03.641Z,8.69
2019-05-12T09:22:31.031Z,8.72
2019-05-12T09:25:04.281Z,8.65
2019-05-12T09:27:39.548Z,8.74
2019-05-12T09:30:24.203Z,8.65
2019-05-12T09:32:56.108Z,8.70
2019-05-12T09:35:33.570Z,8.70
2019-05-12T09:38:03.669Z,8.72
2019-05-12T09:40:43.978Z,8.62
2019-05-12T09:43:15.839Z,8.65
2019-05-12T09:45:51.468Z,8.67
2019-05-12T09:48:19.317Z,8.76
2019-05-12T09:50:51.545Z,8.72
2019-05-12T09:53:23.680Z,8.85
2019-05-12T09:55:54.605Z,8.86
2019-05-12T09:58:36.382Z,8.83
2019-05-12T10:01:09.641Z,8.83
2019-05-12T10:03:44.664Z,8.85
2019-05-12T10:06:18.051Z,8.87
2019-05-12T10:08:54.921Z,8.94
2019-05-12T10:11:29.411Z,8.89
2019-05-12T10:14:05.377Z,8.91
2019-05-12T10:16:33.436Z,8.93
2019-05-12T10:19:04.268Z,8.98
2019-05-12T10:21:36.054Z,9.04
2019-05-12T10:24:07.384Z,9.02
2019-05-12T10:26:41.259Z,9.01
2019-05-12T10:29:19.632Z,9.12
2019-05-12T10:31:44.590Z,9.19
2019-05-12T10:34:17.145Z,9.15
2019-05-12T10:36:49.342Z,9.17
2019-05-12T10:39:21.204Z,9.21
2019-05-12T10:41:53.954Z,9.21
2019-05-12T10:44:30.229Z,9.16
2019-05-12T10:46:58.685Z,9.07
2019-05-12T10:49:29.864Z,9.06
2019-05-12T10:52:00.821Z,9.14
2019-05-12T10:54:34.091Z,9.15
2019-05-12T10:57:05.085Z,9.16
2019-05-12T10:59:38.853Z,9.19
2019-05-12T11:02:09.258Z,9.14
2019-05-12T11:04:41.262Z,9.19
2019-05-12T11:07:13.592Z,9.18
2019-05-12T11:09:45.261Z,9.08
2019-05-12T11:12:19.109Z,9.15
2019-05-12T11:14:48.900Z,9.15
2019-05-12T11:17:19.582Z,9.19
2019-05-12T11:19:53.644Z,9.28
2019-05-12T11:22:23.111Z,9.23
2019-05-12T11:24:55.853Z,9.33
2019-05-12T11:27:26.901Z,9.39
2019-05-12T11:29:57.986Z,9.42
2019-05-12T11:32:34.029Z,9.50
2019-05-12T11:35:03.955Z,9.49
2019-05-12T11:37:34.026Z,9.60
2019-05-12T11:40:06.323Z,9.59
2019-05-12T11:42:37.256Z,9.66
2019-05-12T11:45:08.843Z,9.83
2019-05-12T11:47:40.052Z,10.04
2019-05-12T11:50:10.279Z,10.06
2019-05-12T11:52:41.153Z,10.13
2019-05-12T11:55:13.353Z,10.08
2019-05-12T11:57:43.769Z,10.17
2019-05-12T12:00:15.375Z,10.15
2019-05-12T12:02:45.485Z,10.19
2019-05-12T12:05:16.156Z,10.13
2019-05-12T12:07:50.768Z,10.26
2019-05-12T12:10:18.321Z,10.26
2019-05-12T12:12:49.430Z,10.39
2019-05-12T12:15:26.345Z,10.46
2019-05-12T12:17:53.476Z,10.39
2019-05-12T12:20:24.379Z,10.48
2019-05-12T12:22:54.732Z,10.29
2019-05-12T12:25:26.290Z,10.37
2019-05-12T12:27:56.121Z,10.37
2019-05-12T12:30:26.198Z,10.33
2019-05-12T12:33:00.279Z,10.17
2019-05-12T12:35:29.337Z,10.14
2019-05-12T12:37:59.630Z,10.24
2019-05-12T12:40:29.722Z,10.48
2019-05-12T12:42:59.584Z,10.56
2019-05-12T12:45:40.591Z,10.62
2019-05-12T12:48:19.269Z,10.67
2019-05-12T12:50:45.711Z,10.67
2019-05-12T12:53:15.736Z,10.67
2019-05-12T12:55:45.801Z,10.69
2019-05-12T12:58:21.055Z,10.66
2019-05-12T13:00:53.647Z,10.72
2019-05-12T13:03:25.751Z,10.71
2019-05-12T13:05:54.276Z,10.63
2019-05-12T13:08:24.951Z,10.51
2019-05-12T13:10:56.365Z,10.39
2019-05-12T13:13:26.836Z,10.29
2019-05-12T13:15:57.759Z,10.09
2019-05-12T13:18:33.182Z,9.95
2019-05-12T13:21:03.220Z,9.95
2019-05-12T13:23:40.006Z,9.87
2019-05-12T13:26:05.998Z,9.79
2019-05-12T13:28:36.774Z,9.85
2019-05-12T13:31:15.280Z,9.88
2019-05-12T13:33:44.259Z,9.92
2019-05-12T13:36:16.450Z,10.00
2019-05-12T13:38:46.975Z,10.05
2019-05-12T13:41:20.059Z,10.00
2019-05-12T13:43:56.228Z,10.09
2019-05-12T13:46:25.133Z,10.14
2019-05-12T13:48:59.687Z,10.13
2019-05-12T13:51:28.019Z,10.20
2019-05-12T13:53:58.637Z,10.26
2019-05-12T13:56:33.101Z,10.33
2019-05-12T13:59:01.254Z,10.31
2019-05-12T14:01:40.008Z,10.31
2019-05-12T14:04:06.699Z,10.34
2019-05-12T14:06:37.951Z,10.52
2019-05-12T14:09:10.119Z,10.55
2019-05-12T14:11:43.735Z,10.69
2019-05-12T14:14:15.357Z,10.88
2019-05-12T14:16:57.375Z,10.99
2019-05-12T14:19:23.320Z,11.15
2019-05-12T14:21:54.267Z,11.15
2019-05-12T14:24:24.757Z,11.18
2019-05-12T14:26:55.204Z,11.12
2019-05-12T14:29:30.459Z,11.22
2019-05-12T14:32:02.389Z,11.21
2019-05-12T14:34:33.961Z,11.30
2019-05-12T14:37:10.231Z,11.28
2019-05-12T14:39:46.210Z,11.31
2019-05-12T14:42:14.722Z,11.30
2019-05-12T14:44:49.649Z,11.30
2019-05-12T14:47:27.963Z,11.24
2019-05-12T14:49:54.286Z,11.26
2019-05-12T14:52:27.400Z,11.36
2019-05-12T14:54:58.790Z,11.50
2019-05-12T14:57:37.414Z,11.71
2019-05-12T15:00:11.365Z,11.83
2019-05-12T15:02:43.829Z,12.08
2019-05-12T15:05:15.951Z,12.12
2019-05-12T15:07:53.758Z,12.24
2019-05-12T15:10:23.437Z,12.31
2019-05-12T15:12:54.902Z,12.43
2019-05-12T15:15:28.117Z,12.64
2019-05-12T15:18:03.124Z,12.67
2019-05-12T15:20:33.213Z,12.87
2019-05-12T15:23:06.169Z,12.94
2019-05-12T15:25:38.540Z,12.97
2019-05-12T15:28:10.397Z,12.72
2019-05-12T15:30:43.610Z,12.55
2019-05-12T15:33:15.732Z,12.40
2019-05-12T15:35:48.129Z,12.24
2019-05-12T15:38:20.426Z,12.25
2019-05-12T15:40:53.779Z,12.22
2019-05-12T15:43:25.679Z,12.11
2019-05-12T15:45:59.706Z,12.01
2019-05-12T15:48:34.214Z,12.02
2019-05-12T15:51:08.581Z,11.96
2019-05-12T15:53:39.189Z,11.93
2019-05-12T15:56:21.039Z,11.90
2019-05-12T15:58:47.114Z,11.90
2019-05-12T16:01:20.010Z,11.85
2019-05-12T16:03:54.322Z,11.85
2019-05-12T16:06:26.174Z,11.85
2019-05-12T16:08:59.142Z,11.72
2019-05-12T16:11:30.833Z,11.80
2019-05-12T16:14:04.093Z,11.78
2019-05-12T16:16:42.875Z,11.75
2019-05-12T16:19:15.475Z,11.77
2019-05-12T16:21:46.740Z,11.76
2019-05-12T16:24:18.626Z,11.75
2019-05-12T16:26:51.958Z,11.77
2019-05-12T16:29:27.299Z,11.83
2019-05-12T16:31:58.438Z,11.83
2019-05-12T16:34:29.651Z,11.79
2019-05-12T16:37:01.002Z,11.77
2019-05-12T16:39:37.175Z,11.82
2019-05-12T16:42:10.421Z,11.77
2019-05-12T16:44:38.579Z,11.75
2019-05-12T16:47:27.269Z,11.78
2019-05-12T16:50:15.656Z,11.81
2019-05-12T16:52:41.898Z,11.69
2019-05-12T16:55:13.170Z,11.65
2019-05-12T16:57:51.655Z,11.70
2019-05-12T17:00:17.384Z,11.63
2019-05-12T17:02:53.695Z,11.55
2019-05-12T17:05:24.012Z,11.54
2019-05-12T17:07:55.875Z,11.59
2019-05-12T17:10:28.765Z,11.55
2019-05-12T17:13:00.020Z,11.55
2019-05-12T17:15:31.242Z,11.55
2019-05-12T17:18:04.331Z,11.61
2019-05-12T17:20:45.862Z,11.61
2019-05-12T17:23:13.842Z,11.61
2019-05-12T17:25:45.395Z,11.58
2019-05-12T17:28:16.467Z,11.61
2019-05-12T17:30:47.572Z,11.61
2019-05-12T17:33:22.934Z,11.54
2019-05-12T17:35:53.319Z,11.50
2019-05-12T17:38:26.373Z,11.50
2019-05-12T17:41:00.655Z,11.50
2019-05-12T17:43:33.689Z,11.42
2019-05-12T17:46:04.555Z,11.33
2019-05-12T17:48:42.411Z,11.22
2019-05-12T17:51:10.464Z,11.04
2019-05-12T17:53:43.419Z,10.93
2019-05-12T17:56:16.051Z,10.79
2019-05-12T17:58:47.713Z,10.80
2019-05-12T18:01:23.162Z,10.78
2019-05-12T18:03:53.558Z,10.84
2019-05-12T18:06:26.916Z,10.75
2019-05-12T18:09:00.281Z,10.64
2019-05-12T18:11:33.963Z,10.50
2019-05-12T18:14:07.255Z,10.41
2019-05-12T18:16:38.586Z,10.31
2019-05-12T18:19:17.673Z,10.22
2019-05-12T18:21:45.138Z,10.28
2019-05-12T18:24:17.286Z,10.36
2019-05-12T18:26:56.638Z,10.42
2019-05-12T18:29:26.621Z,10.39
2019-05-12T18:31:57.998Z,10.35
2019-05-12T18:34:35.376Z,10.32
2019-05-12T18:37:07.047Z,10.27
2019-05-12T18:39:40.052Z,10.25
2019-05-12T18:42:13.944Z,10.17
2019-05-12T18:44:44.995Z,10.13
2019-05-12T18:47:17.210Z,10.07
2019-05-12T18:49:50.240Z,10.11
2019-05-12T18:52:23.606Z,10.12
2019-05-12T18:54:57.268Z,10.10
2019-05-12T18:57:28.109Z,10.08
2019-05-12T19:00:04.051Z,9.97
2019-05-12T19:02:33.502Z,9.89
2019-05-12T19:05:06.408Z,9.78
2019-05-12T19:07:40.012Z,9.64
2019-05-12T19:10:09.912Z,9.69
2019-05-12T19:12:44.260Z,9.76
2019-05-12T19:15:37.910Z,9.77
2019-05-12T19:18:09.486Z,9.71
2019-05-12T19:20:44.034Z,9.63
2019-05-12T19:23:16.389Z,9.53
2019-05-12T19:25:47.668Z,9.49
2019-05-12T19:28:18.589Z,9.49
2019-05-12T19:30:50.445Z,9.46
2019-05-12T19:33:22.905Z,9.34
2019-05-12T19:35:59.801Z,9.28
2019-05-12T19:38:28.155Z,9.30
2019-05-12T19:41:04.468Z,9.24
2019-05-12T19:43:39.171Z,9.26
2019-05-12T19:46:08.258Z,9.25
2019-05-12T19:48:49.940Z,9.18
2019-05-12T19:51:25.559Z,9.17
2019-05-12T19:53:53.671Z,9.13
2019-05-12T19:56:24.600Z,9.10
2019-05-12T19:58:55.905Z,9.18
2019-05-12T20:01:32.982Z,9.25
2019-05-12T20:03:59.340Z,9.18
2019-05-12T20:06:30.648Z,9.15
2019-05-12T20:09:06.863Z,9.10
2019-05-12T20:11:33.999Z,8.97
2019-05-12T20:14:04.710Z,8.92
2019-05-12T20:16:35.461Z,8.91
2019-05-12T20:19:06.923Z,8.95
2019-05-12T20:21:48.379Z,8.98
2019-05-12T20:24:29.319Z,8.83
2019-05-12T20:27:04.096Z,8.74
2019-05-12T20:29:43.411Z,8.81
2019-05-12T20:32:29.757Z,8.69
2019-05-12T20:35:08.677Z,8.62
2019-05-12T20:37:52.974Z,8.53
2019-05-12T20:40:20.324Z,8.61
2019-05-12T20:43:07.377Z,8.67
2019-05-12T20:45:26.065Z,8.69
2019-05-12T20:47:57.851Z,8.65
2019-05-12T20:50:38.666Z,8.74
2019-05-12T20:53:03.842Z,8.72
2019-05-12T20:55:41.196Z,8.78
2019-05-12T20:58:08.567Z,8.82
2019-05-12T21:00:45.418Z,8.79
2019-05-12T21:03:27.243Z,8.80
2019-05-12T21:06:06.719Z,8.80
2019-05-12T21:08:37.880Z,8.84
2019-05-12T21:11:09.398Z,8.85
2019-05-12T21:13:43.794Z,8.83
2019-05-12T21:16:19.530Z,8.78
2019-05-12T21:18:55.845Z,8.78
2019-05-12T21:21:27.652Z,8.77
2019-05-12T21:23:59.127Z,8.77
2019-05-12T21:26:28.452Z,8.64
2019-05-12T21:29:01.479Z,8.57
2019-05-12T21:31:33.758Z,8.61
2019-05-12T21:34:06.840Z,8.62
2019-05-12T21:36:38.358Z,8.60
2019-05-12T21:39:10.562Z,8.57
2019-05-12T21:41:47.390Z,8.54
2019-05-12T21:44:17.577Z,8.58
2019-05-12T21:46:58.942Z,8.61
2019-05-12T21:49:25.134Z,8.64
2019-05-12T21:52:02.969Z,8.69
2019-05-12T21:54:36.182Z,8.68
2019-05-12T21:57:04.434Z,8.61
2019-05-12T21:59:39.513Z,8.59
2019-05-12T22:02:09.863Z,8.56
2019-05-12T22:04:42.847Z,8.51
2019-05-12T22:07:15.248Z,8.54
2019-05-12T22:09:47.235Z,8.58
2019-05-12T22:12:23.490Z,8.59
2019-05-12T22:14:54.278Z,8.63
2019-05-12T22:17:28.346Z,8.64
2019-05-12T22:20:00.052Z,8.65
2019-05-12T22:22:33.218Z,8.68
2019-05-12T22:25:09.724Z,8.69
2019-05-12T22:27:39.761Z,8.71
2019-05-12T22:30:13.347Z,8.72
2019-05-12T22:32:44.255Z,8.69
2019-05-12T22:35:21.775Z,8.71
2019-05-12T22:37:48.860Z,8.67
2019-05-12T22:40:23.458Z,8.68
2019-05-12T22:42:59.286Z,8.63
2019-05-12T22:45:27.412Z,8.65
2019-05-12T22:47:59.240Z,8.63
2019-05-12T22:50:33.334Z,8.59
2019-05-12T22:53:04.725Z,8.58
2019-05-12T22:55:36.527Z,8.54
2019-05-12T22:58:10.735Z,8.57
2019-05-12T23:00:41.145Z,8.47
2019-05-12T23:03:14.948Z,8.44
2019-05-12T23:05:50.864Z,8.47
2019-05-12T23:08:18.946Z,8.43
2019-05-12T23:10:53.276Z,8.46
2019-05-12T23:13:24.341Z,8.44
2019-05-12T23:15:56.008Z,8.50
2019-05-12T23:18:30.719Z,8.48
2019-05-12T23:21:03.934Z,8.54
2019-05-12T23:23:34.096Z,8.54
2019-05-12T23:26:05.377Z,8.48
2019-05-12T23:28:40.522Z,8.55
2019-05-12T23:31:09.856Z,8.58
2019-05-12T23:33:44.154Z,8.54
2019-05-12T23:36:17.809Z,8.52
2019-05-12T23:38:51.950Z,8.55
2019-05-12T23:41:20.239Z,8.49
2019-05-12T23:43:53.649Z,8.48
2019-05-12T23:46:24.965Z,8.52
2019-05-12T23:48:57.547Z,8.42
2019-05-12T23:51:29.095Z,8.37
2019-05-12T23:54:00.776Z,8.30
2019-05-12T23:56:33.703Z,8.20
2019-05-12T23:59:05.577Z,8.17
